sensor_id;sensor_type;location;lat;lon;timestamp;pressure;altitude;pressure_sealevel;temperature;humidity
26531;BME280;14201;43.188;24.160;2023-02-28T00:01:21;100417.31;;;8.91;92.96
26531;BME280;14201;43.188;24.160;2023-02-28T00:03:47;100425.22;;;8.93;92.58
26531;BME280;14201;43.188;24.160;2023-02-28T00:06:12;100430.13;;;8.88;93.08
26531;BME280;14201;43.188;24.160;2023-02-28T00:08:39;100424.13;;;8.89;92.66
26531;BME280;14201;43.188;24.160;2023-02-28T00:11:07;100439.91;;;8.92;92.88
26531;BME280;14201;43.188;24.160;2023-02-28T00:13:34;100440.94;;;8.81;93.22
26531;BME280;14201;43.188;24.160;2023-02-28T00:16:12;100439.84;;;8.77;94.03
26531;BME280;14201;43.188;24.160;2023-02-28T00:18:39;100426.59;;;8.87;94.08
26531;BME280;14201;43.188;24.160;2023-02-28T00:21:06;100430.03;;;8.86;93.73
26531;BME280;14201;43.188;24.160;2023-02-28T00:23:32;100427.91;;;8.94;93.24
26531;BME280;14201;43.188;24.160;2023-02-28T00:25:57;100431.50;;;8.96;93.41
26531;BME280;14201;43.188;24.160;2023-02-28T00:28:24;100421.09;;;8.96;92.71
26531;BME280;14201;43.188;24.160;2023-02-28T00:30:49;100421.25;;;8.99;92.57
26531;BME280;14201;43.188;24.160;2023-02-28T00:33:15;100429.22;;;9.16;89.76
26531;BME280;14201;43.188;24.160;2023-02-28T00:35:41;100428.22;;;9.14;89.74
26531;BME280;14201;43.188;24.160;2023-02-28T00:38:06;100423.44;;;9.06;90.01
26531;BME280;14201;43.188;24.160;2023-02-28T00:40:32;100419.13;;;9.07;89.70
26531;BME280;14201;43.188;24.160;2023-02-28T00:42:58;100413.56;;;8.86;89.65
26531;BME280;14201;43.188;24.160;2023-02-28T00:45:23;100412.66;;;8.72;91.14
26531;BME280;14201;43.188;24.160;2023-02-28T00:47:49;100408.84;;;8.52;93.35
26531;BME280;14201;43.188;24.160;2023-02-28T00:50:20;100418.31;;;8.38;94.47
26531;BME280;14201;43.188;24.160;2023-02-28T00:52:46;100423.22;;;8.47;94.96
26531;BME280;14201;43.188;24.160;2023-02-28T00:55:12;100418.56;;;8.41;95.35
26531;BME280;14201;43.188;24.160;2023-02-28T00:57:38;100426.22;;;8.53;95.04
26531;BME280;14201;43.188;24.160;2023-02-28T01:00:05;100424.28;;;8.64;93.96
26531;BME280;14201;43.188;24.160;2023-02-28T01:02:30;100429.22;;;8.59;93.79
26531;BME280;14201;43.188;24.160;2023-02-28T01:04:56;100423.03;;;8.44;94.13
26531;BME280;14201;43.188;24.160;2023-02-28T01:07:22;100410.53;;;8.38;93.99
26531;BME280;14201;43.188;24.160;2023-02-28T01:09:48;100417.44;;;8.38;95.23
26531;BME280;14201;43.188;24.160;2023-02-28T01:12:15;100422.06;;;8.42;95.46
26531;BME280;14201;43.188;24.160;2023-02-28T01:14:41;100414.13;;;8.54;95.11
26531;BME280;14201;43.188;24.160;2023-02-28T01:17:07;100404.25;;;8.48;94.25
26531;BME280;14201;43.188;24.160;2023-02-28T01:19:33;100397.69;;;8.26;95.05
26531;BME280;14201;43.188;24.160;2023-02-28T01:22:05;100406.94;;;8.36;94.99
26531;BME280;14201;43.188;24.160;2023-02-28T01:24:32;100400.44;;;8.29;95.07
26531;BME280;14201;43.188;24.160;2023-02-28T01:26:57;100404.75;;;8.16;95.36
26531;BME280;14201;43.188;24.160;2023-02-28T01:29:23;100397.69;;;8.26;95.17
26531;BME280;14201;43.188;24.160;2023-02-28T01:31:49;100396.31;;;8.18;94.80
26531;BME280;14201;43.188;24.160;2023-02-28T01:34:14;100407.56;;;8.19;95.33
26531;BME280;14201;43.188;24.160;2023-02-28T01:36:40;100403.78;;;8.14;95.11
26531;BME280;14201;43.188;24.160;2023-02-28T01:39:05;100407.25;;;8.14;96.20
26531;BME280;14201;43.188;24.160;2023-02-28T01:41:33;100398.06;;;8.33;95.50
26531;BME280;14201;43.188;24.160;2023-02-28T01:44:04;100399.56;;;8.29;95.25
26531;BME280;14201;43.188;24.160;2023-02-28T01:46:32;100406.13;;;8.37;94.65
26531;BME280;14201;43.188;24.160;2023-02-28T01:49:03;100406.75;;;8.46;94.29
26531;BME280;14201;43.188;24.160;2023-02-28T01:51:35;100396.56;;;8.36;94.28
26531;BME280;14201;43.188;24.160;2023-02-28T01:54:07;100396.66;;;8.38;93.95
26531;BME280;14201;43.188;24.160;2023-02-28T01:56:42;100412.03;;;8.35;94.35
26531;BME280;14201;43.188;24.160;2023-02-28T01:59:09;100417.03;;;8.32;94.34
26531;BME280;14201;43.188;24.160;2023-02-28T02:01:34;100390.91;;;8.15;95.13
26531;BME280;14201;43.188;24.160;2023-02-28T02:04:02;100401.28;;;8.02;96.60
26531;BME280;14201;43.188;24.160;2023-02-28T02:06:41;100392.50;;;8.00;97.54
26531;BME280;14201;43.188;24.160;2023-02-28T02:09:07;100399.19;;;8.09;97.10
26531;BME280;14201;43.188;24.160;2023-02-28T02:11:34;100400.50;;;8.03;97.42
26531;BME280;14201;43.188;24.160;2023-02-28T02:14:24;100405.47;;;8.00;97.83
26531;BME280;14201;43.188;24.160;2023-02-28T02:17:07;100405.19;;;7.95;98.26
26531;BME280;14201;43.188;24.160;2023-02-28T02:25:46;100408.19;;;8.15;97.22
26531;BME280;14201;43.188;24.160;2023-02-28T02:34:16;100398.78;;;8.17;97.55
26531;BME280;14201;43.188;24.160;2023-02-28T02:36:49;100395.88;;;8.12;97.49
26531;BME280;14201;43.188;24.160;2023-02-28T02:39:44;100392.22;;;8.08;97.38
26531;BME280;14201;43.188;24.160;2023-02-28T02:42:16;100387.72;;;8.06;97.98
26531;BME280;14201;43.188;24.160;2023-02-28T02:45:13;100391.69;;;8.14;98.19
26531;BME280;14201;43.188;24.160;2023-02-28T02:47:41;100392.72;;;7.89;99.54
26531;BME280;14201;43.188;24.160;2023-02-28T02:50:12;100404.00;;;7.90;100.00
26531;BME280;14201;43.188;24.160;2023-02-28T02:52:43;100400.50;;;7.76;100.00
26531;BME280;14201;43.188;24.160;2023-02-28T02:55:11;100395.81;;;7.71;100.00
26531;BME280;14201;43.188;24.160;2023-02-28T03:00:08;100408.88;;;7.72;100.00
26531;BME280;14201;43.188;24.160;2023-02-28T03:02:36;100419.34;;;7.74;100.00
26531;BME280;14201;43.188;24.160;2023-02-28T03:05:19;100418.66;;;7.76;100.00
26531;BME280;14201;43.188;24.160;2023-02-28T03:07:45;100423.25;;;7.80;100.00
26531;BME280;14201;43.188;24.160;2023-02-28T03:10:39;100433.22;;;7.87;100.00
26531;BME280;14201;43.188;24.160;2023-02-28T03:13:24;100444.09;;;7.82;100.00
26531;BME280;14201;43.188;24.160;2023-02-28T03:16:09;100439.59;;;7.93;100.00
26531;BME280;14201;43.188;24.160;2023-02-28T03:21:58;100438.22;;;8.11;99.71
26531;BME280;14201;43.188;24.160;2023-02-28T03:26:58;100439.72;;;8.07;99.55
26531;BME280;14201;43.188;24.160;2023-02-28T03:29:43;100444.91;;;8.07;99.66
26531;BME280;14201;43.188;24.160;2023-02-28T03:34:50;100439.19;;;7.86;100.00
26531;BME280;14201;43.188;24.160;2023-02-28T03:37:22;100443.06;;;7.66;100.00
26531;BME280;14201;43.188;24.160;2023-02-28T03:40:03;100435.19;;;7.65;100.00
26531;BME280;14201;43.188;24.160;2023-02-28T03:42:34;100442.97;;;7.78;100.00
26531;BME280;14201;43.188;24.160;2023-02-28T03:45:09;100439.31;;;7.88;100.00
26531;BME280;14201;43.188;24.160;2023-02-28T03:47:51;100445.38;;;7.75;100.00
26531;BME280;14201;43.188;24.160;2023-02-28T03:50:34;100450.38;;;7.72;100.00
26531;BME280;14201;43.188;24.160;2023-02-28T03:53:07;100453.97;;;7.87;100.00
26531;BME280;14201;43.188;24.160;2023-02-28T03:55:48;100462.25;;;7.95;100.00
26531;BME280;14201;43.188;24.160;2023-02-28T03:58:47;100449.47;;;7.85;100.00
26531;BME280;14201;43.188;24.160;2023-02-28T04:01:26;100457.75;;;7.93;100.00
26531;BME280;14201;43.188;24.160;2023-02-28T04:03:54;100466.75;;;7.98;100.00
26531;BME280;14201;43.188;24.160;2023-02-28T04:06:22;100467.53;;;8.10;100.00
26531;BME280;14201;43.188;24.160;2023-02-28T04:08:48;100470.94;;;8.09;100.00
26531;BME280;14201;43.188;24.160;2023-02-28T04:11:27;100473.66;;;8.11;100.00
26531;BME280;14201;43.188;24.160;2023-02-28T04:13:55;100479.13;;;8.28;100.00
26531;BME280;14201;43.188;24.160;2023-02-28T04:16:21;100479.31;;;8.32;100.00
26531;BME280;14201;43.188;24.160;2023-02-28T04:18:46;100484.94;;;8.24;99.85
26531;BME280;14201;43.188;24.160;2023-02-28T04:21:13;100481.88;;;8.43;98.19
26531;BME280;14201;43.188;24.160;2023-02-28T04:23:39;100483.53;;;8.43;98.07
26531;BME280;14201;43.188;24.160;2023-02-28T04:26:05;100487.91;;;8.31;99.53
26531;BME280;14201;43.188;24.160;2023-02-28T04:28:32;100494.75;;;8.42;98.90
26531;BME280;14201;43.188;24.160;2023-02-28T04:31:03;100495.09;;;8.35;99.02
26531;BME280;14201;43.188;24.160;2023-02-28T04:33:30;100491.78;;;8.37;99.47
26531;BME280;14201;43.188;24.160;2023-02-28T04:36:03;100489.66;;;8.43;98.67
26531;BME280;14201;43.188;24.160;2023-02-28T04:38:33;100486.94;;;8.42;98.47
26531;BME280;14201;43.188;24.160;2023-02-28T04:41:00;100485.25;;;8.42;96.87
26531;BME280;14201;43.188;24.160;2023-02-28T04:43:27;100483.13;;;8.37;96.98
26531;BME280;14201;43.188;24.160;2023-02-28T04:45:54;100475.16;;;8.34;96.66
26531;BME280;14201;43.188;24.160;2023-02-28T04:48:23;100478.63;;;8.07;97.90
26531;BME280;14201;43.188;24.160;2023-02-28T04:50:49;100477.47;;;7.77;98.88
26531;BME280;14201;43.188;24.160;2023-02-28T04:53:14;100477.53;;;7.52;100.00
26531;BME280;14201;43.188;24.160;2023-02-28T04:55:40;100473.91;;;7.37;100.00
26531;BME280;14201;43.188;24.160;2023-02-28T04:58:06;100480.63;;;7.46;100.00
26531;BME280;14201;43.188;24.160;2023-02-28T05:00:34;100487.16;;;7.41;100.00
26531;BME280;14201;43.188;24.160;2023-02-28T05:03:00;100481.00;;;7.39;100.00
26531;BME280;14201;43.188;24.160;2023-02-28T05:05:26;100478.22;;;7.24;100.00
26531;BME280;14201;43.188;24.160;2023-02-28T05:07:52;100474.34;;;7.18;100.00
26531;BME280;14201;43.188;24.160;2023-02-28T05:10:24;100487.06;;;7.15;100.00
26531;BME280;14201;43.188;24.160;2023-02-28T05:12:50;100496.94;;;7.20;100.00
26531;BME280;14201;43.188;24.160;2023-02-28T05:15:18;100498.00;;;7.36;100.00
26531;BME280;14201;43.188;24.160;2023-02-28T05:17:43;100495.78;;;7.28;100.00
26531;BME280;14201;43.188;24.160;2023-02-28T05:20:10;100502.03;;;7.19;100.00
26531;BME280;14201;43.188;24.160;2023-02-28T05:22:42;100508.22;;;7.21;100.00
26531;BME280;14201;43.188;24.160;2023-02-28T05:25:14;100516.44;;;7.15;100.00
26531;BME280;14201;43.188;24.160;2023-02-28T05:27:41;100514.16;;;6.95;100.00
26531;BME280;14201;43.188;24.160;2023-02-28T05:30:08;100516.22;;;6.87;100.00
26531;BME280;14201;43.188;24.160;2023-02-28T05:32:39;100527.03;;;6.81;100.00
26531;BME280;14201;43.188;24.160;2023-02-28T05:35:09;100526.47;;;6.74;100.00
26531;BME280;14201;43.188;24.160;2023-02-28T05:37:37;100532.22;;;6.69;100.00
26531;BME280;14201;43.188;24.160;2023-02-28T05:40:03;100527.16;;;6.83;100.00
26531;BME280;14201;43.188;24.160;2023-02-28T05:42:35;100527.25;;;6.84;100.00
26531;BME280;14201;43.188;24.160;2023-02-28T05:45:01;100521.34;;;6.99;100.00
26531;BME280;14201;43.188;24.160;2023-02-28T05:47:27;100531.41;;;6.94;100.00
26531;BME280;14201;43.188;24.160;2023-02-28T05:49:52;100535.22;;;6.87;100.00
26531;BME280;14201;43.188;24.160;2023-02-28T05:52:18;100536.94;;;6.87;100.00
26531;BME280;14201;43.188;24.160;2023-02-28T05:54:43;100532.09;;;6.80;100.00
26531;BME280;14201;43.188;24.160;2023-02-28T05:57:09;100554.13;;;6.98;100.00
26531;BME280;14201;43.188;24.160;2023-02-28T05:59:35;100537.69;;;6.86;100.00
26531;BME280;14201;43.188;24.160;2023-02-28T06:02:06;100548.03;;;7.09;100.00
26531;BME280;14201;43.188;24.160;2023-02-28T06:04:33;100556.66;;;7.22;100.00
26531;BME280;14201;43.188;24.160;2023-02-28T06:06:59;100557.16;;;7.04;100.00
26531;BME280;14201;43.188;24.160;2023-02-28T06:09:24;100546.03;;;6.82;100.00
26531;BME280;14201;43.188;24.160;2023-02-28T06:11:50;100568.44;;;6.93;100.00
26531;BME280;14201;43.188;24.160;2023-02-28T06:14:17;100572.50;;;6.78;100.00
26531;BME280;14201;43.188;24.160;2023-02-28T06:16:44;100570.94;;;6.80;100.00
26531;BME280;14201;43.188;24.160;2023-02-28T06:19:10;100581.06;;;6.88;100.00
26531;BME280;14201;43.188;24.160;2023-02-28T06:21:36;100575.84;;;7.00;100.00
26531;BME280;14201;43.188;24.160;2023-02-28T06:24:02;100567.44;;;6.91;100.00
26531;BME280;14201;43.188;24.160;2023-02-28T06:26:28;100574.53;;;6.82;100.00
26531;BME280;14201;43.188;24.160;2023-02-28T06:28:54;100571.47;;;6.87;100.00
26531;BME280;14201;43.188;24.160;2023-02-28T06:31:20;100580.50;;;6.93;100.00
26531;BME280;14201;43.188;24.160;2023-02-28T06:33:46;100580.91;;;7.10;100.00
26531;BME280;14201;43.188;24.160;2023-02-28T06:36:13;100578.56;;;6.90;100.00
26531;BME280;14201;43.188;24.160;2023-02-28T06:38:39;100585.06;;;7.08;100.00
26531;BME280;14201;43.188;24.160;2023-02-28T06:41:07;100592.28;;;7.13;99.59
26531;BME280;14201;43.188;24.160;2023-02-28T06:43:41;100592.72;;;7.07;99.25
26531;BME280;14201;43.188;24.160;2023-02-28T06:46:08;100587.41;;;7.17;98.95
26531;BME280;14201;43.188;24.160;2023-02-28T06:48:35;100583.47;;;7.22;99.30
26531;BME280;14201;43.188;24.160;2023-02-28T06:51:06;100584.22;;;7.33;99.73
26531;BME280;14201;43.188;24.160;2023-02-28T06:53:32;100586.47;;;7.28;99.99
26531;BME280;14201;43.188;24.160;2023-02-28T06:55:58;100596.13;;;7.43;98.54
26531;BME280;14201;43.188;24.160;2023-02-28T06:58:24;100597.69;;;7.53;96.62
26531;BME280;14201;43.188;24.160;2023-02-28T07:00:51;100602.28;;;7.57;97.29
26531;BME280;14201;43.188;24.160;2023-02-28T07:03:18;100600.75;;;7.47;97.72
26531;BME280;14201;43.188;24.160;2023-02-28T07:05:44;100604.66;;;7.54;97.64
26531;BME280;14201;43.188;24.160;2023-02-28T07:08:10;100603.06;;;7.56;98.10
26531;BME280;14201;43.188;24.160;2023-02-28T07:10:39;100589.69;;;7.49;97.08
26531;BME280;14201;43.188;24.160;2023-02-28T07:13:06;100613.91;;;7.75;95.66
26531;BME280;14201;43.188;24.160;2023-02-28T07:15:32;100606.38;;;7.78;94.86
26531;BME280;14201;43.188;24.160;2023-02-28T07:17:58;100609.72;;;7.77;94.45
26531;BME280;14201;43.188;24.160;2023-02-28T07:20:24;100602.88;;;7.78;94.48
26531;BME280;14201;43.188;24.160;2023-02-28T07:22:50;100596.78;;;7.77;94.49
26531;BME280;14201;43.188;24.160;2023-02-28T07:25:28;100608.66;;;7.87;94.23
26531;BME280;14201;43.188;24.160;2023-02-28T07:27:55;100606.66;;;7.83;94.68
26531;BME280;14201;43.188;24.160;2023-02-28T07:30:21;100605.94;;;7.72;95.81
26531;BME280;14201;43.188;24.160;2023-02-28T07:32:47;100604.28;;;7.86;95.11
26531;BME280;14201;43.188;24.160;2023-02-28T07:35:13;100600.63;;;7.96;94.41
26531;BME280;14201;43.188;24.160;2023-02-28T07:37:41;100593.06;;;7.99;94.20
26531;BME280;14201;43.188;24.160;2023-02-28T07:40:08;100594.97;;;8.01;93.14
26531;BME280;14201;43.188;24.160;2023-02-28T07:42:35;100593.63;;;7.81;93.89
26531;BME280;14201;43.188;24.160;2023-02-28T07:45:01;100606.00;;;7.85;92.45
26531;BME280;14201;43.188;24.160;2023-02-28T07:47:28;100610.66;;;8.03;92.10
26531;BME280;14201;43.188;24.160;2023-02-28T07:49:54;100609.47;;;7.86;91.49
26531;BME280;14201;43.188;24.160;2023-02-28T07:52:20;100610.97;;;7.82;93.38
26531;BME280;14201;43.188;24.160;2023-02-28T07:54:45;100613.84;;;7.87;92.90
26531;BME280;14201;43.188;24.160;2023-02-28T07:57:11;100613.19;;;7.89;93.41
26531;BME280;14201;43.188;24.160;2023-02-28T07:59:36;100616.09;;;7.94;93.65
26531;BME280;14201;43.188;24.160;2023-02-28T08:02:02;100610.41;;;8.00;94.00
26531;BME280;14201;43.188;24.160;2023-02-28T08:04:27;100599.25;;;8.01;93.08
26531;BME280;14201;43.188;24.160;2023-02-28T08:06:56;100589.25;;;7.94;92.44
26531;BME280;14201;43.188;24.160;2023-02-28T08:09:22;100602.06;;;8.04;92.94
26531;BME280;14201;43.188;24.160;2023-02-28T08:11:48;100602.28;;;8.07;92.63
26531;BME280;14201;43.188;24.160;2023-02-28T08:14:13;100607.47;;;8.07;92.49
26531;BME280;14201;43.188;24.160;2023-02-28T08:16:39;100612.66;;;8.07;92.57
26531;BME280;14201;43.188;24.160;2023-02-28T08:19:04;100610.94;;;8.07;92.74
26531;BME280;14201;43.188;24.160;2023-02-28T08:21:30;100618.03;;;8.10;92.59
26531;BME280;14201;43.188;24.160;2023-02-28T08:23:56;100616.25;;;8.09;92.52
26531;BME280;14201;43.188;24.160;2023-02-28T08:26:22;100617.44;;;8.14;92.59
26531;BME280;14201;43.188;24.160;2023-02-28T08:28:48;100614.56;;;8.23;90.92
26531;BME280;14201;43.188;24.160;2023-02-28T08:31:15;100622.72;;;8.16;90.98
26531;BME280;14201;43.188;24.160;2023-02-28T08:33:42;100618.47;;;8.16;91.63
26531;BME280;14201;43.188;24.160;2023-02-28T08:36:08;100613.69;;;8.22;91.96
26531;BME280;14201;43.188;24.160;2023-02-28T08:38:35;100615.06;;;8.17;91.91
26531;BME280;14201;43.188;24.160;2023-02-28T08:41:06;100622.47;;;8.24;91.91
26531;BME280;14201;43.188;24.160;2023-02-28T08:43:33;100619.66;;;8.21;91.56
26531;BME280;14201;43.188;24.160;2023-02-28T08:45:59;100619.47;;;8.32;89.78
26531;BME280;14201;43.188;24.160;2023-02-28T08:48:26;100615.28;;;8.20;90.96
26531;BME280;14201;43.188;24.160;2023-02-28T08:51:05;100639.22;;;8.29;91.20
26531;BME280;14201;43.188;24.160;2023-02-28T08:53:31;100627.34;;;8.20;91.82
26531;BME280;14201;43.188;24.160;2023-02-28T08:56:06;100634.56;;;8.24;92.55
26531;BME280;14201;43.188;24.160;2023-02-28T08:58:32;100637.22;;;8.25;91.98
26531;BME280;14201;43.188;24.160;2023-02-28T09:00:57;100637.63;;;8.18;92.36
26531;BME280;14201;43.188;24.160;2023-02-28T09:03:23;100637.16;;;8.24;91.93
26531;BME280;14201;43.188;24.160;2023-02-28T09:05:57;100636.44;;;8.26;91.94
26531;BME280;14201;43.188;24.160;2023-02-28T09:08:24;100642.22;;;8.22;92.11
26531;BME280;14201;43.188;24.160;2023-02-28T09:10:50;100637.16;;;8.24;90.95
26531;BME280;14201;43.188;24.160;2023-02-28T09:13:16;100629.41;;;7.99;91.48
26531;BME280;14201;43.188;24.160;2023-02-28T09:15:42;100641.91;;;7.93;92.38
26531;BME280;14201;43.188;24.160;2023-02-28T09:18:07;100637.94;;;7.73;93.94
26531;BME280;14201;43.188;24.160;2023-02-28T09:20:33;100644.97;;;7.87;93.87
26531;BME280;14201;43.188;24.160;2023-02-28T09:22:58;100651.03;;;7.99;92.94
26531;BME280;14201;43.188;24.160;2023-02-28T09:25:24;100643.66;;;7.80;93.80
26531;BME280;14201;43.188;24.160;2023-02-28T09:27:50;100647.06;;;7.42;94.97
26531;BME280;14201;43.188;24.160;2023-02-28T09:30:16;100638.16;;;7.51;95.97
26531;BME280;14201;43.188;24.160;2023-02-28T09:32:41;100647.22;;;7.69;95.36
26531;BME280;14201;43.188;24.160;2023-02-28T09:35:07;100632.06;;;7.75;97.41
26531;BME280;14201;43.188;24.160;2023-02-28T09:37:38;100632.66;;;7.71;96.43
26531;BME280;14201;43.188;24.160;2023-02-28T09:40:04;100631.34;;;7.89;95.38
26531;BME280;14201;43.188;24.160;2023-02-28T09:42:32;100625.53;;;7.80;94.91
26531;BME280;14201;43.188;24.160;2023-02-28T09:45:00;100636.53;;;7.64;95.21
26531;BME280;14201;43.188;24.160;2023-02-28T09:47:39;100630.44;;;7.64;94.88
26531;BME280;14201;43.188;24.160;2023-02-28T09:50:32;100626.41;;;7.56;94.78
26531;BME280;14201;43.188;24.160;2023-02-28T09:53:02;100622.59;;;7.51;96.52
26531;BME280;14201;43.188;24.160;2023-02-28T09:55:39;100623.59;;;7.53;96.63
26531;BME280;14201;43.188;24.160;2023-02-28T09:58:20;100633.56;;;7.72;97.30
26531;BME280;14201;43.188;24.160;2023-02-28T10:00:57;100626.50;;;7.57;96.87
26531;BME280;14201;43.188;24.160;2023-02-28T10:03:30;100627.78;;;7.51;96.07
26531;BME280;14201;43.188;24.160;2023-02-28T10:08:48;100593.81;;;7.22;96.50
26531;BME280;14201;43.188;24.160;2023-02-28T10:11:16;100615.88;;;7.41;97.54
26531;BME280;14201;43.188;24.160;2023-02-28T10:14:18;100623.22;;;7.60;97.74
26531;BME280;14201;43.188;24.160;2023-02-28T10:17:04;100624.81;;;7.58;97.19
26531;BME280;14201;43.188;24.160;2023-02-28T10:20:01;100629.59;;;7.77;96.77
26531;BME280;14201;43.188;24.160;2023-02-28T10:22:49;100626.75;;;7.85;95.47
26531;BME280;14201;43.188;24.160;2023-02-28T10:25:20;100620.56;;;7.83;96.87
26531;BME280;14201;43.188;24.160;2023-02-28T10:27:46;100609.53;;;7.99;95.94
26531;BME280;14201;43.188;24.160;2023-02-28T10:30:12;100605.50;;;8.16;94.18
26531;BME280;14201;43.188;24.160;2023-02-28T10:32:40;100608.75;;;8.14;94.42
26531;BME280;14201;43.188;24.160;2023-02-28T10:35:20;100610.28;;;8.23;94.84
26531;BME280;14201;43.188;24.160;2023-02-28T10:38:14;100612.38;;;8.29;93.39
26531;BME280;14201;43.188;24.160;2023-02-28T10:40:41;100574.53;;;8.19;93.82
26531;BME280;14201;43.188;24.160;2023-02-28T10:45:38;100591.72;;;8.31;93.04
26531;BME280;14201;43.188;24.160;2023-02-28T10:50:58;100593.31;;;8.28;91.26
26531;BME280;14201;43.188;24.160;2023-02-28T11:01:40;100561.84;;;7.97;93.74
26531;BME280;14201;43.188;24.160;2023-02-28T11:06:46;100581.13;;;8.27;93.30
26531;BME280;14201;43.188;24.160;2023-02-28T11:09:27;100585.72;;;8.32;94.00
26531;BME280;14201;43.188;24.160;2023-02-28T11:11:55;100583.56;;;8.38;93.69
26531;BME280;14201;43.188;24.160;2023-02-28T11:14:24;100581.75;;;8.37;92.78
26531;BME280;14201;43.188;24.160;2023-02-28T11:16:52;100587.38;;;8.43;93.16
26531;BME280;14201;43.188;24.160;2023-02-28T11:19:29;100584.19;;;8.47;91.62
26531;BME280;14201;43.188;24.160;2023-02-28T11:22:01;100591.19;;;8.48;92.20
26531;BME280;14201;43.188;24.160;2023-02-28T11:24:37;100592.69;;;8.44;91.65
26531;BME280;14201;43.188;24.160;2023-02-28T11:27:11;100587.94;;;8.39;91.76
26531;BME280;14201;43.188;24.160;2023-02-28T11:29:50;100582.19;;;8.43;92.12
26531;BME280;14201;43.188;24.160;2023-02-28T11:32:33;100584.19;;;8.47;90.69
26531;BME280;14201;43.188;24.160;2023-02-28T11:35:23;100590.72;;;8.28;91.75
26531;BME280;14201;43.188;24.160;2023-02-28T11:37:49;100577.34;;;8.22;92.67
26531;BME280;14201;43.188;24.160;2023-02-28T11:40:18;100580.72;;;8.21;92.67
26531;BME280;14201;43.188;24.160;2023-02-28T11:48:28;100577.13;;;8.19;95.43
26531;BME280;14201;43.188;24.160;2023-02-28T11:56:25;100567.78;;;8.35;93.35
26531;BME280;14201;43.188;24.160;2023-02-28T12:04:31;100577.31;;;8.47;92.54
26531;BME280;14201;43.188;24.160;2023-02-28T12:18:42;100584.50;;;8.52;92.64
26531;BME280;14201;43.188;24.160;2023-02-28T12:24:22;100577.59;;;8.52;92.62
26531;BME280;14201;43.188;24.160;2023-02-28T12:26:55;100578.31;;;8.50;91.50
26531;BME280;14201;43.188;24.160;2023-02-28T12:29:28;100589.19;;;8.57;90.18
26531;BME280;14201;43.188;24.160;2023-02-28T12:34:29;100582.41;;;8.46;91.49
26531;BME280;14201;43.188;24.160;2023-02-28T12:36:58;100586.88;;;8.48;91.38
26531;BME280;14201;43.188;24.160;2023-02-28T12:39:36;100586.09;;;8.50;91.61
26531;BME280;14201;43.188;24.160;2023-02-28T12:42:13;100589.09;;;8.42;92.45
26531;BME280;14201;43.188;24.160;2023-02-28T12:47:35;100583.00;;;8.55;91.87
26531;BME280;14201;43.188;24.160;2023-02-28T12:50:08;100584.78;;;8.56;91.90
26531;BME280;14201;43.188;24.160;2023-02-28T13:09:01;100591.69;;;8.42;89.92
26531;BME280;14201;43.188;24.160;2023-02-28T13:11:31;100577.28;;;8.34;89.46
26531;BME280;14201;43.188;24.160;2023-02-28T13:14:03;100569.28;;;7.93;90.39
26531;BME280;14201;43.188;24.160;2023-02-28T13:19:21;100570.28;;;7.95;92.27
26531;BME280;14201;43.188;24.160;2023-02-28T13:21:50;100566.91;;;7.96;91.69
26531;BME280;14201;43.188;24.160;2023-02-28T13:24:51;100571.88;;;7.93;93.05
26531;BME280;14201;43.188;24.160;2023-02-28T13:38:35;100586.50;;;7.54;95.57
26531;BME280;14201;43.188;24.160;2023-02-28T13:44:04;100577.38;;;7.59;96.00
26531;BME280;14201;43.188;24.160;2023-02-28T14:05:32;100551.81;;;7.15;95.16
26531;BME280;14201;43.188;24.160;2023-02-28T14:07:59;100567.50;;;7.04;97.13
26531;BME280;14201;43.188;24.160;2023-02-28T14:10:30;100575.63;;;6.97;98.96
26531;BME280;14201;43.188;24.160;2023-02-28T14:13:00;100568.47;;;6.69;99.15
26531;BME280;14201;43.188;24.160;2023-02-28T14:18:13;100570.91;;;6.92;99.92
26531;BME280;14201;43.188;24.160;2023-02-28T14:20:42;100571.00;;;7.05;99.05
26531;BME280;14201;43.188;24.160;2023-02-28T14:28:39;100576.34;;;7.32;96.34
26531;BME280;14201;43.188;24.160;2023-02-28T14:36:45;100585.38;;;7.13;99.15
26531;BME280;14201;43.188;24.160;2023-02-28T14:39:15;100581.22;;;7.27;97.37
26531;BME280;14201;43.188;24.160;2023-02-28T14:41:43;100562.72;;;7.22;97.60
26531;BME280;14201;43.188;24.160;2023-02-28T14:44:20;100586.03;;;7.22;97.50
26531;BME280;14201;43.188;24.160;2023-02-28T14:46:49;100580.94;;;7.36;97.69
26531;BME280;14201;43.188;24.160;2023-02-28T14:49:28;100577.78;;;7.40;97.58
26531;BME280;14201;43.188;24.160;2023-02-28T14:52:15;100574.06;;;7.36;97.74
26531;BME280;14201;43.188;24.160;2023-02-28T14:54:43;100588.38;;;7.43;96.88
26531;BME280;14201;43.188;24.160;2023-02-28T14:57:50;100590.56;;;7.50;95.67
26531;BME280;14201;43.188;24.160;2023-02-28T15:00:30;100584.13;;;7.57;95.17
26531;BME280;14201;43.188;24.160;2023-02-28T15:02:58;100571.19;;;7.57;94.80
26531;BME280;14201;43.188;24.160;2023-02-28T15:05:29;100585.38;;;7.50;94.77
26531;BME280;14201;43.188;24.160;2023-02-28T15:08:12;100587.44;;;7.42;95.89
26531;BME280;14201;43.188;24.160;2023-02-28T15:10:43;100585.06;;;7.45;95.69
26531;BME280;14201;43.188;24.160;2023-02-28T15:13:14;100590.25;;;7.45;95.90
26531;BME280;14201;43.188;24.160;2023-02-28T15:15:51;100596.41;;;7.59;95.62
26531;BME280;14201;43.188;24.160;2023-02-28T15:21:04;100593.69;;;7.58;95.64
26531;BME280;14201;43.188;24.160;2023-02-28T15:23:32;100598.69;;;7.55;95.59
26531;BME280;14201;43.188;24.160;2023-02-28T15:26:00;100599.09;;;7.61;95.48
26531;BME280;14201;43.188;24.160;2023-02-28T15:28:26;100603.59;;;7.63;94.97
26531;BME280;14201;43.188;24.160;2023-02-28T15:30:59;100609.69;;;7.64;94.60